QFA937 YBBN-YPPH
Flight info
| Callsign | QFA937 |
|---|---|
| Flight time | N/A |
| Altitude | 36000 |
| Route | BN H91 SANEG Q4 IDBUG Q42 ANROM T33 IPRAM/N0459F380 T33 LEC J141 KG Q41 MALUP Q158 PH |
| Aircraft | B38M/M-SDE1FGHILORVWXY/HB1 |
Departure
| Time | N/A |
|---|---|
| Airport | Brisbane International Airport (YBBN) |
Arrival
| Time | 2026-05-04 08:35 |
|---|---|
| Airport | Perth International Airport (YPPH) |
| Time | Latitude | Longitude | Altitude | Speed | Heading |
|---|---|---|---|---|---|
| 2026-05-04 07:04 | -30.86666 | 127.18912 | 36014 ft | 440 kts | 269° |
| 2026-05-04 07:04 | -30.86699 | 127.15341 | 36014 ft | 440 kts | 269° |
| 2026-05-04 07:05 | -30.86763 | 127.08217 | 36014 ft | 440 kts | 269° |
| 2026-05-04 07:05 | -30.86822 | 127.01091 | 36014 ft | 440 kts | 269° |
| 2026-05-04 07:06 | -30.86904 | 126.90401 | 36014 ft | 440 kts | 269° |
| 2026-05-04 07:07 | -30.86953 | 126.83272 | 36014 ft | 440 kts | 269° |
| 2026-05-04 07:09 | -30.87113 | 126.54805 | 36014 ft | 440 kts | 270° |
| 2026-05-04 07:09 | -30.87143 | 126.47680 | 36014 ft | 440 kts | 270° |
| 2026-05-04 07:10 | -30.87169 | 126.40557 | 36014 ft | 440 kts | 270° |
| 2026-05-04 07:12 | -30.87235 | 126.12055 | 36014 ft | 440 kts | 270° |
| 2026-05-04 07:12 | -30.87241 | 126.04926 | 36014 ft | 440 kts | 270° |
| 2026-05-04 07:13 | -30.87244 | 125.97798 | 36014 ft | 440 kts | 270° |
| 2026-05-04 07:13 | -30.87242 | 125.90665 | 36014 ft | 440 kts | 270° |
| 2026-05-04 07:14 | -30.87213 | 125.72856 | 36014 ft | 440 kts | 270° |
| 2026-05-04 07:15 | -30.87193 | 125.65770 | 36014 ft | 440 kts | 270° |
| 2026-05-04 07:15 | -30.87170 | 125.58595 | 36014 ft | 440 kts | 270° |
| 2026-05-04 07:16 | -30.87144 | 125.51852 | 36014 ft | 440 kts | 270° |
| 2026-05-04 07:16 | -30.87116 | 125.44722 | 36014 ft | 440 kts | 270° |
| 2026-05-04 07:17 | -30.87099 | 125.37599 | 36012 ft | 440 kts | 270° |
| 2026-05-04 07:17 | -30.87054 | 125.30474 | 36012 ft | 440 kts | 270° |
| 2026-05-04 07:18 | -30.87009 | 125.23342 | 36009 ft | 441 kts | 269° |
| 2026-05-04 07:18 | -30.86962 | 125.16208 | 36013 ft | 441 kts | 270° |
| 2026-05-04 07:19 | -30.86896 | 125.09078 | 36013 ft | 440 kts | 270° |
| 2026-05-04 07:19 | -30.86847 | 125.01952 | 36013 ft | 440 kts | 270° |
| 2026-05-04 07:20 | -30.86790 | 124.94826 | 36013 ft | 440 kts | 270° |
| 2026-05-04 07:20 | -30.86725 | 124.87701 | 36013 ft | 440 kts | 270° |
| 2026-05-04 07:22 | -30.86431 | 124.59234 | 36013 ft | 440 kts | 271° |
| 2026-05-04 07:23 | -30.86351 | 124.52107 | 36013 ft | 440 kts | 271° |
| 2026-05-04 07:23 | -30.86266 | 124.44980 | 36014 ft | 440 kts | 271° |
| 2026-05-04 07:24 | -30.86175 | 124.37859 | 36014 ft | 440 kts | 271° |
| 2026-05-04 07:24 | -30.86082 | 124.30726 | 36014 ft | 440 kts | 271° |
| 2026-05-04 07:26 | -30.85673 | 124.02265 | 36014 ft | 441 kts | 271° |
| 2026-05-04 07:27 | -30.85557 | 123.95132 | 36014 ft | 441 kts | 271° |
| 2026-05-04 07:27 | -30.85442 | 123.87999 | 36013 ft | 441 kts | 271° |
| 2026-05-04 07:28 | -30.85321 | 123.80858 | 36013 ft | 441 kts | 271° |
| 2026-05-04 07:28 | -30.85201 | 123.73723 | 36013 ft | 441 kts | 271° |
| 2026-05-04 07:29 | -30.85071 | 123.66590 | 36013 ft | 441 kts | 271° |
| 2026-05-04 07:29 | -30.84937 | 123.59455 | 36013 ft | 441 kts | 271° |
| 2026-05-04 07:30 | -30.84796 | 123.52320 | 36013 ft | 441 kts | 271° |
| 2026-05-04 07:30 | -30.84652 | 123.45190 | 36013 ft | 441 kts | 271° |
| 2026-05-04 07:31 | -30.84502 | 123.38047 | 36013 ft | 442 kts | 271° |
| 2026-05-04 07:33 | -30.83863 | 123.09525 | 36013 ft | 442 kts | 271° |
| 2026-05-04 07:33 | -30.83694 | 123.02380 | 36013 ft | 442 kts | 271° |
| 2026-05-04 07:34 | -30.83522 | 122.95242 | 36013 ft | 442 kts | 271° |
| 2026-05-04 07:34 | -30.83374 | 122.89258 | 36013 ft | 441 kts | 271° |
| 2026-05-04 07:35 | -30.83164 | 122.80951 | 36014 ft | 442 kts | 271° |
| 2026-05-04 07:35 | -30.82979 | 122.73814 | 36014 ft | 442 kts | 271° |
| 2026-05-04 07:36 | -30.82823 | 122.67881 | 36014 ft | 441 kts | 271° |
| 2026-05-04 07:38 | -30.82033 | 122.39322 | 36013 ft | 442 kts | 271° |
| 2026-05-04 07:38 | -30.81826 | 122.32174 | 36014 ft | 442 kts | 272° |
| 2026-05-04 07:39 | -30.81615 | 122.25041 | 36013 ft | 442 kts | 272° |
| 2026-05-04 07:39 | -30.81400 | 122.17906 | 36014 ft | 441 kts | 272° |
| 2026-05-04 07:40 | -30.81181 | 122.10769 | 36014 ft | 441 kts | 272° |
| 2026-05-04 07:40 | -30.80959 | 122.03629 | 36014 ft | 442 kts | 272° |
| 2026-05-04 07:41 | -30.80732 | 121.96495 | 36014 ft | 441 kts | 272° |
| 2026-05-04 07:41 | -30.80501 | 121.89366 | 36014 ft | 441 kts | 272° |
| 2026-05-04 07:42 | -30.80268 | 121.82237 | 36014 ft | 441 kts | 272° |
| 2026-05-04 07:42 | -30.80030 | 121.75150 | 36013 ft | 441 kts | 272° |
| 2026-05-04 07:43 | -30.79787 | 121.68007 | 36014 ft | 442 kts | 272° |
| 2026-05-04 07:43 | -30.79541 | 121.60867 | 36013 ft | 442 kts | 272° |
| 2026-05-04 07:44 | -30.79291 | 121.53735 | 36014 ft | 441 kts | 272° |
| 2026-05-04 07:44 | -30.79456 | 121.46618 | 36035 ft | 441 kts | 258° |
| 2026-05-04 07:45 | -30.80316 | 121.43205 | 36050 ft | 441 kts | 247° |
| 2026-05-04 07:45 | -30.81734 | 121.40034 | 36062 ft | 442 kts | 239° |
| 2026-05-04 07:45 | -30.84950 | 121.33922 | 36024 ft | 443 kts | 238° |
| 2026-05-04 07:46 | -30.88194 | 121.27838 | 36014 ft | 442 kts | 238° |
| 2026-05-04 07:46 | -30.91382 | 121.21723 | 36013 ft | 442 kts | 239° |
| 2026-05-04 07:47 | -30.94583 | 121.15608 | 36014 ft | 442 kts | 238° |
| 2026-05-04 07:49 | -31.07374 | 120.91112 | 36013 ft | 442 kts | 239° |
| 2026-05-04 07:49 | -31.10562 | 120.84983 | 36014 ft | 442 kts | 239° |
| 2026-05-04 07:50 | -31.13748 | 120.78847 | 36013 ft | 442 kts | 239° |
| 2026-05-04 07:50 | -31.16932 | 120.72702 | 36013 ft | 442 kts | 239° |
| 2026-05-04 07:51 | -31.20115 | 120.66552 | 36013 ft | 442 kts | 239° |
| 2026-05-04 07:51 | -31.23295 | 120.60398 | 36014 ft | 442 kts | 239° |
| 2026-05-04 07:52 | -31.26465 | 120.54253 | 36013 ft | 442 kts | 239° |
| 2026-05-04 07:52 | -31.29617 | 120.48129 | 36014 ft | 442 kts | 239° |
| 2026-05-04 07:54 | -31.39883 | 120.22018 | 36013 ft | 442 kts | 246° |
| 2026-05-04 07:55 | -31.42375 | 120.15438 | 36013 ft | 442 kts | 246° |
| 2026-05-04 07:55 | -31.44854 | 120.08862 | 36014 ft | 442 kts | 246° |
| 2026-05-04 07:56 | -31.47337 | 120.02275 | 36014 ft | 442 kts | 246° |
| 2026-05-04 07:56 | -31.49816 | 119.95684 | 36014 ft | 442 kts | 246° |
| 2026-05-04 07:57 | -31.52292 | 119.89085 | 36014 ft | 442 kts | 246° |
| 2026-05-04 07:57 | -31.54764 | 119.82485 | 36014 ft | 442 kts | 246° |
| 2026-05-04 07:58 | -31.57234 | 119.75879 | 36013 ft | 442 kts | 246° |
| 2026-05-04 07:58 | -31.59696 | 119.69282 | 36013 ft | 442 kts | 246° |
| 2026-05-04 07:59 | -31.62157 | 119.62675 | 36014 ft | 442 kts | 246° |
| 2026-05-04 07:59 | -31.64611 | 119.56073 | 36013 ft | 442 kts | 246° |
| 2026-05-04 08:00 | -31.67050 | 119.49498 | 36013 ft | 442 kts | 246° |
| 2026-05-04 08:02 | -31.76830 | 119.23006 | 36014 ft | 442 kts | 246° |
| 2026-05-04 08:02 | -31.79269 | 119.16369 | 36014 ft | 442 kts | 246° |
| 2026-05-04 08:03 | -31.81702 | 119.09732 | 36014 ft | 442 kts | 246° |
| 2026-05-04 08:03 | -31.84133 | 119.03093 | 36014 ft | 442 kts | 246° |
| 2026-05-04 08:04 | -31.86559 | 118.96452 | 36014 ft | 442 kts | 247° |
| 2026-05-04 08:04 | -31.88980 | 118.89811 | 36013 ft | 442 kts | 247° |
| 2026-05-04 08:05 | -31.91401 | 118.83159 | 36013 ft | 442 kts | 247° |
| 2026-05-04 08:05 | -31.93813 | 118.76520 | 36014 ft | 442 kts | 247° |
| 2026-05-04 08:06 | -31.96226 | 118.69861 | 36014 ft | 442 kts | 247° |
| 2026-05-04 08:06 | -31.98632 | 118.63210 | 36014 ft | 441 kts | 247° |
| 2026-05-04 08:08 | -32.08252 | 118.36596 | 36009 ft | 441 kts | 245° |
| 2026-05-04 08:11 | -32.20029 | 118.07197 | 36014 ft | 441 kts | 245° |
| 2026-05-04 08:11 | -32.22627 | 118.00629 | 35283 ft | 440 kts | 245° |
| 2026-05-04 08:11 | -32.23911 | 117.97368 | 34810 ft | 434 kts | 245° |
| 2026-05-04 08:12 | -32.25163 | 117.94196 | 34798 ft | 417 kts | 245° |
| 2026-05-04 08:12 | -32.26369 | 117.91144 | 34682 ft | 405 kts | 245° |
| 2026-05-04 08:12 | -32.27551 | 117.88151 | 34276 ft | 400 kts | 245° |
| 2026-05-04 08:12 | -32.28719 | 117.85185 | 33819 ft | 397 kts | 245° |
| 2026-05-04 08:13 | -32.29876 | 117.82238 | 33346 ft | 394 kts | 245° |
| 2026-05-04 08:13 | -32.31024 | 117.79315 | 32871 ft | 391 kts | 245° |
| 2026-05-04 08:13 | -32.32165 | 117.76409 | 32400 ft | 388 kts | 245° |
| 2026-05-04 08:13 | -32.33295 | 117.73528 | 31925 ft | 385 kts | 245° |
| 2026-05-04 08:14 | -32.34416 | 117.70671 | 31471 ft | 381 kts | 245° |
| 2026-05-04 08:14 | -32.35441 | 117.67802 | 31015 ft | 377 kts | 252° |
| 2026-05-04 08:14 | -32.36019 | 117.64754 | 30587 ft | 385 kts | 263° |
| 2026-05-04 08:16 | -32.34437 | 117.42076 | 27097 ft | 414 kts | 275° |
| 2026-05-04 08:16 | -32.34158 | 117.38705 | 26601 ft | 411 kts | 275° |
| 2026-05-04 08:16 | -32.33874 | 117.35351 | 26092 ft | 408 kts | 275° |
| 2026-05-04 08:17 | -32.33589 | 117.32027 | 25594 ft | 405 kts | 275° |
| 2026-05-04 08:17 | -32.33307 | 117.28732 | 25100 ft | 402 kts | 275° |
| 2026-05-04 08:17 | -32.33027 | 117.25461 | 24613 ft | 399 kts | 275° |
| 2026-05-04 08:17 | -32.32749 | 117.22201 | 24127 ft | 396 kts | 275° |
| 2026-05-04 08:19 | -32.20884 | 117.05580 | 19255 ft | 380 kts | 315° |
| 2026-05-04 08:19 | -32.19008 | 117.03400 | 18547 ft | 377 kts | 315° |
| 2026-05-04 08:20 | -32.17133 | 117.01246 | 17850 ft | 374 kts | 316° |
| 2026-05-04 08:20 | -32.15268 | 116.99175 | 17173 ft | 372 kts | 317° |
| 2026-05-04 08:20 | -32.13376 | 116.97118 | 16484 ft | 369 kts | 317° |
| 2026-05-04 08:20 | -32.11495 | 116.95073 | 15805 ft | 366 kts | 316° |
| 2026-05-04 08:21 | -32.09648 | 116.93043 | 15268 ft | 359 kts | 316° |
| 2026-05-04 08:21 | -32.07852 | 116.91053 | 14819 ft | 351 kts | 316° |
| 2026-05-04 08:21 | -32.06096 | 116.89107 | 14403 ft | 342 kts | 316° |
| 2026-05-04 08:21 | -32.04376 | 116.87212 | 14002 ft | 334 kts | 316° |
| 2026-05-04 08:22 | -32.02696 | 116.85367 | 13612 ft | 327 kts | 316° |
| 2026-05-04 08:22 | -32.01001 | 116.83506 | 13238 ft | 339 kts | 316° |
| 2026-05-04 08:24 | -31.90257 | 116.70991 | 10740 ft | 322 kts | 298° |
| 2026-05-04 08:24 | -31.89192 | 116.67655 | 10384 ft | 325 kts | 285° |
| 2026-05-04 08:24 | -31.88792 | 116.65965 | 10199 ft | 323 kts | 285° |
| 2026-05-04 08:24 | -31.88216 | 116.63421 | 9922 ft | 320 kts | 284° |
| 2026-05-04 08:25 | -31.87653 | 116.60902 | 9648 ft | 317 kts | 284° |
| 2026-05-04 08:25 | -31.86893 | 116.57559 | 9280 ft | 315 kts | 285° |
| 2026-05-04 08:25 | -31.86320 | 116.55080 | 9012 ft | 314 kts | 285° |
| 2026-05-04 08:25 | -31.85939 | 116.53442 | 8821 ft | 313 kts | 285° |
| 2026-05-04 08:26 | -31.85364 | 116.50970 | 8524 ft | 313 kts | 285° |
| 2026-05-04 08:27 | -31.81414 | 116.33921 | 6419 ft | 303 kts | 285° |
| 2026-05-04 08:28 | -31.80859 | 116.31532 | 6121 ft | 302 kts | 285° |
| 2026-05-04 08:28 | -31.80307 | 116.29165 | 5825 ft | 300 kts | 285° |
| 2026-05-04 08:28 | -31.79762 | 116.26826 | 5525 ft | 299 kts | 285° |
| 2026-05-04 08:28 | -31.79214 | 116.24480 | 5220 ft | 291 kts | 285° |
| 2026-05-04 08:29 | -31.78686 | 116.22215 | 4921 ft | 283 kts | 285° |
| 2026-05-04 08:29 | -31.78171 | 116.20010 | 4614 ft | 277 kts | 285° |
| 2026-05-04 08:29 | -31.77664 | 116.17845 | 4312 ft | 272 kts | 285° |
| 2026-05-04 08:31 | -31.77647 | 116.04190 | 2721 ft | 226 kts | 233° |
| 2026-05-04 08:33 | -31.85307 | 115.99058 | 1583 ft | 167 kts | 194° |
| 2026-05-04 08:33 | -31.86433 | 115.98729 | 1359 ft | 166 kts | 194° |
| 2026-05-04 08:35 | -31.93611 | 115.96628 | 61 ft | 127 kts | 194° |
| 2026-05-04 08:35 | -31.94240 | 115.96446 | 66 ft | 64 kts | 194° |
| 2026-05-04 08:35 | -31.94456 | 115.96439 | 66 ft | 16 kts | 123° |
| 2026-05-04 08:35 | -31.94489 | 115.96569 | 59 ft | 17 kts | 104° |
| 2026-05-04 08:37 | -31.94230 | 115.96797 | 67 ft | 0 kts | 11° |
| 2026-05-04 08:37 | -31.94220 | 115.96800 | 65 ft | 6 kts | 12° |
| 2026-05-04 08:37 | -31.94115 | 115.96828 | 58 ft | 25 kts | 14° |
| 2026-05-04 08:38 | -31.93940 | 115.96882 | 65 ft | 26 kts | 14° |
| 2026-05-04 08:38 | -31.93767 | 115.96932 | 61 ft | 25 kts | 13° |
| 2026-05-04 08:38 | -31.93596 | 115.96981 | 64 ft | 25 kts | 14° |
| 2026-05-04 08:40 | -31.93445 | 115.96406 | 64 ft | 16 kts | 296° |
| 2026-05-04 08:40 | -31.93366 | 115.96321 | 61 ft | 16 kts | 348° |
| 2026-05-04 08:40 | -31.93260 | 115.96324 | 64 ft | 12 kts | 346° |
| 2026-05-04 08:41 | -31.93218 | 115.96273 | 64 ft | 2 kts | 302° |
| 2026-05-04 08:41 | -31.93211 | 115.96251 | 60 ft | 3 kts | 282° |
| 2026-05-04 08:41 | -31.93214 | 115.96219 | 65 ft | 4 kts | 247° |
| 2026-05-04 08:41 | -31.93237 | 115.96188 | 66 ft | 6 kts | 222° |
| 2026-05-04 08:42 | -31.93248 | 115.96177 | 58 ft | 0 kts | 220° |